Time,TemperatureF,DewpointF,PressureIn,WindDirection,WindDirectionDegrees,WindSpeedMPH,WindSpeedGustMPH,Humidity,HourlyPrecipIn,Conditions,Clouds,dailyrainin,SoftwareType,DateUTC
2013-04-24 00:01:00,41.9,38.3,30.07,NNE,28,1.3,3.5,87,0.00,CLR,,0.00,WeatherDisplay:10.37,2013-04-24 04:01:00,
2013-04-24 00:02:00,41.9,38.3,30.06,NE,40,3.7,3.7,87,0.00,CLR,,0.00,WeatherDisplay:10.37,2013-04-24 04:02:00,
2013-04-24 00:03:00,41.9,38.3,30.06,NNE,15,1.9,4.6,87,0.00,CLR,,0.00,WeatherDisplay:10.37,2013-04-24 04:03:00,
2013-04-24 00:08:00,41.9,38.3,30.05,NNE,16,1.9,5.0,87,0.00,CLR,,0.00,WeatherDisplay:10.37,2013-04-24 04:08:00,
2013-04-24 00:13:00,41.9,38.3,30.05,NE,34,2.5,4.6,87,0.00,CLR,,0.00,WeatherDisplay:10.37,2013-04-24 04:13:00,
2013-04-24 00:18:00,42.1,38.5,30.05,NNW,340,3.5,5.8,87,0.00,CLR,,0.00,WeatherDisplay:10.37,2013-04-24 04:18:00,
2013-04-24 00:24:00,42.1,38.5,30.05,North,11,0.2,2.3,87,0.00,CLR,,0.00,WeatherDisplay:10.37,2013-04-24 04:24:00,
2013-04-24 00:29:00,42.2,38.6,30.05,North,355,0.6,2.3,87,0.00,CLR,,0.00,WeatherDisplay:10.37,2013-04-24 04:29:00,
2013-04-24 00:34:00,42.2,38.6,30.05,NNW,331,3.6,5.8,87,0.00,CLR,,0.00,WeatherDisplay:10.37,2013-04-24 04:34:00,
2013-04-24 00:39:00,42.2,38.6,30.05,NNW,338,1.9,2.3,87,0.00,CLR,,0.00,WeatherDisplay:10.37,2013-04-24 04:39:00,
2013-04-24 00:44:00,42.2,38.6,30.05,NNW,344,0.6,2.3,87,0.00,CLR,,0.00,WeatherDisplay:10.37,2013-04-24 04:44:00,
2013-04-24 00:49:00,42.3,38.7,30.05,North,9,0.4,3.5,87,0.00,CLR,,0.00,WeatherDisplay:10.37,2013-04-24 04:49:00,
2013-04-24 00:55:00,42.3,38.4,30.05,NNW,339,1.1,3.5,86,0.00,CLR,,0.00,WeatherDisplay:10.37,2013-04-24 04:55:00,
2013-04-24 01:00:00,42.5,38.6,30.04,NNE,30,0.4,3.0,86,0.00,CLR,,0.00,WeatherDisplay:10.37,2013-04-24 05:00:00,
2013-04-24 01:05:00,42.5,38.6,30.03,NNE,30,0.6,3.5,86,0.00,CLR,,0.00,WeatherDisplay:10.37,2013-04-24 05:05:00,
2013-04-24 01:10:00,42.5,38.6,30.03,NNE,30,0.0,1.1,86,0.00,CLR,,0.00,WeatherDisplay:10.37,2013-04-24 05:10:00,
2013-04-24 01:15:00,42.5,38.6,30.03,NE,53,1.4,2.3,86,0.00,CLR,,0.00,WeatherDisplay:10.37,2013-04-24 05:15:00,
2013-04-24 01:21:00,42.6,38.7,30.03,NE,53,1.4,3.5,86,0.00,CLR,,0.00,WeatherDisplay:10.37,2013-04-24 05:21:00,
2013-04-24 01:26:00,42.6,38.7,30.02,NE,53,0.5,2.3,86,0.00,CLR,,0.00,WeatherDisplay:10.37,2013-04-24 05:26:00,
2013-04-24 01:31:00,42.6,38.7,30.02,NE,53,0.5,1.1,86,0.00,CLR,,0.00,WeatherDisplay:10.37,2013-04-24 05:31:00,
2013-04-24 01:36:00,42.6,38.7,30.02,NE,53,1.3,3.0,86,0.00,CLR,,0.00,WeatherDisplay:10.37,2013-04-24 05:36:00,
2013-04-24 01:41:00,42.6,38.7,30.02,NE,44,2.0,3.5,86,0.00,CLR,,0.00,WeatherDisplay:10.37,2013-04-24 05:41:00,
2013-04-24 01:46:00,42.8,38.9,30.01,NNE,26,2.8,3.5,86,0.00,CLR,,0.00,WeatherDisplay:10.37,2013-04-24 05:46:00,
2013-04-24 01:52:00,42.8,38.9,30.00,NNE,25,4.1,6.0,86,0.00,CLR,,0.00,WeatherDisplay:10.37,2013-04-24 05:52:00,
2013-04-24 01:57:00,42.8,38.9,30.00,NNE,14,3.7,4.0,86,0.00,CLR,,0.00,WeatherDisplay:10.37,2013-04-24 05:57:00,
2013-04-24 02:02:00,42.8,38.9,30.01,NNW,329,1.7,3.5,86,0.00,CLR,,0.00,WeatherDisplay:10.37,2013-04-24 06:02:00,
2013-04-24 02:08:00,42.9,39.0,30.00,NNE,19,0.4,3.5,86,0.00,CLR,,0.00,WeatherDisplay:10.37,2013-04-24 06:08:00,
2013-04-24 02:13:00,42.9,39.3,30.00,NNE,15,3.0,5.8,87,0.00,CLR,,0.00,WeatherDisplay:10.37,2013-04-24 06:13:00,
2013-04-24 02:18:00,43.1,39.5,30.00,NNE,27,2.6,3.5,87,0.00,CLR,,0.00,WeatherDisplay:10.37,2013-04-24 06:18:00,
2013-04-24 02:23:00,43.1,39.5,30.00,North,351,4.7,6.9,87,0.00,CLR,,0.00,WeatherDisplay:10.37,2013-04-24 06:23:00,
2013-04-24 02:29:00,43.1,39.5,30.00,NNE,26,0.3,2.3,87,0.00,CLR,,0.00,WeatherDisplay:10.37,2013-04-24 06:29:00,
2013-04-24 02:34:00,43.1,39.5,30.00,NNE,17,1.9,2.3,87,0.00,CLR,,0.00,WeatherDisplay:10.37,2013-04-24 06:34:00,
2013-04-24 02:39:00,43.1,39.5,30.00,NNW,345,1.0,3.5,87,0.00,CLR,,0.00,WeatherDisplay:10.37,2013-04-24 06:39:00,
2013-04-24 02:44:00,43.2,39.6,30.00,NNW,337,2.3,3.5,87,0.00,CLR,,0.00,WeatherDisplay:10.37,2013-04-24 06:44:00,
2013-04-24 02:50:00,43.2,39.9,30.00,NW,304,0.2,2.3,88,0.00,CLR,,0.00,WeatherDisplay:10.37,2013-04-24 06:50:00,
2013-04-24 02:55:00,43.2,39.9,30.00,NNE,17,2.4,3.5,88,0.00,CLR,,0.00,WeatherDisplay:10.37,2013-04-24 06:55:00,
2013-04-24 03:00:00,43.3,39.7,30.00,NNE,20,0.1,2.3,87,0.00,CLR,,0.00,WeatherDisplay:10.37,2013-04-24 07:00:00,
2013-04-24 03:06:00,43.3,39.7,30.00,NNE,24,1.8,4.0,87,0.00,CLR,,0.00,WeatherDisplay:10.37,2013-04-24 07:06:00,
2013-04-24 03:11:00,43.3,39.7,30.00,NE,51,3.7,4.6,87,0.00,CLR,,0.00,WeatherDisplay:10.37,2013-04-24 07:11:00,
2013-04-24 03:16:00,43.3,39.7,29.99,NNE,18,0.7,2.3,87,0.00,CLR,,0.00,WeatherDisplay:10.37,2013-04-24 07:16:00,
2013-04-24 03:21:00,43.5,40.2,29.99,NE,34,5.4,6.9,88,0.00,CLR,,0.00,WeatherDisplay:10.37,2013-04-24 07:21:00,
2013-04-24 03:27:00,43.5,40.2,30.00,NNE,28,0.0,1.1,88,0.00,CLR,,0.00,WeatherDisplay:10.37,2013-04-24 07:27:00,
2013-04-24 03:32:00,43.5,40.2,29.99,NE,56,2.4,3.5,88,0.00,CLR,,0.00,WeatherDisplay:10.37,2013-04-24 07:32:00,
2013-04-24 03:37:00,43.5,40.2,29.99,NE,39,1.6,3.5,88,0.00,CLR,,0.00,WeatherDisplay:10.37,2013-04-24 07:37:00,
2013-04-24 03:43:00,43.5,40.2,29.99,NE,34,1.3,3.5,88,0.00,CLR,,0.00,WeatherDisplay:10.37,2013-04-24 07:43:00,
2013-04-24 03:48:00,43.5,40.2,29.99,NE,43,0.9,3.5,88,0.00,CLR,,0.00,WeatherDisplay:10.37,2013-04-24 07:48:00,
2013-04-24 03:53:00,43.5,40.2,29.99,NE,44,1.9,4.6,88,0.00,CLR,,0.00,WeatherDisplay:10.37,2013-04-24 07:53:00,
2013-04-24 03:59:00,43.5,40.2,29.98,NNE,30,2.1,4.6,88,0.00,CLR,,0.00,WeatherDisplay:10.37,2013-04-24 07:59:00,
2013-04-24 04:04:00,43.5,40.2,29.98,NE,44,0.4,3.5,88,0.00,CLR,,0.00,WeatherDisplay:10.37,2013-04-24 08:04:00,
2013-04-24 04:09:00,43.5,40.2,29.98,ENE,63,2.0,3.5,88,0.00,CLR,,0.00,WeatherDisplay:10.37,2013-04-24 08:09:00,
2013-04-24 04:14:00,43.3,40.0,29.98,NNE,16,2.2,4.6,88,0.00,CLR,,0.00,WeatherDisplay:10.37,2013-04-24 08:14:00,
2013-04-24 04:19:00,43.3,40.0,29.98,NE,40,1.2,3.5,88,0.00,CLR,,0.00,WeatherDisplay:10.37,2013-04-24 08:19:00,
2013-04-24 04:25:00,43.2,39.9,29.97,NE,40,0.1,1.1,88,0.00,CLR,,0.00,WeatherDisplay:10.37,2013-04-24 08:25:00,
2013-04-24 04:30:00,43.1,39.8,29.97,NE,40,0.0,0.0,88,0.00,CLR,,0.00,WeatherDisplay:10.37,2013-04-24 08:30:00,
2013-04-24 04:35:00,42.8,39.5,29.97,NE,40,0.0,0.0,88,0.00,CLR,,0.00,WeatherDisplay:10.37,2013-04-24 08:35:00,
2013-04-24 04:40:00,42.5,39.5,29.97,NE,40,0.1,1.1,89,0.00,CLR,,0.00,WeatherDisplay:10.37,2013-04-24 08:40:00,
2013-04-24 04:46:00,42.2,39.2,29.97,NE,40,0.2,1.1,89,0.00,CLR,,0.00,WeatherDisplay:10.37,2013-04-24 08:46:00,
2013-04-24 04:51:00,42.1,39.4,29.97,NE,40,0.3,2.3,90,0.00,CLR,,0.00,WeatherDisplay:10.37,2013-04-24 08:51:00,
2013-04-24 04:56:00,41.9,39.2,29.97,NE,40,0.0,0.0,90,0.00,CLR,,0.00,WeatherDisplay:10.37,2013-04-24 08:56:00,
2013-04-24 05:01:00,41.5,38.8,29.97,NE,40,0.0,0.0,90,0.00,CLR,,0.00,WeatherDisplay:10.37,2013-04-24 09:01:00,
2013-04-24 05:06:00,41.2,38.5,29.97,NE,40,0.0,0.0,90,0.00,CLR,,0.00,WeatherDisplay:10.37,2013-04-24 09:06:00,
2013-04-24 05:11:00,40.9,38.5,29.97,NE,40,0.0,0.0,91,0.00,CLR,,0.00,WeatherDisplay:10.37,2013-04-24 09:11:00,
2013-04-24 05:17:00,40.5,38.1,29.97,NE,40,0.0,0.0,91,0.00,CLR,,0.00,WeatherDisplay:10.37,2013-04-24 09:17:00,
2013-04-24 05:22:00,40.2,38.1,29.97,NE,40,0.0,0.0,92,0.00,CLR,,0.00,WeatherDisplay:10.37,2013-04-24 09:22:00,
2013-04-24 05:27:00,40.1,38.0,29.98,NE,40,0.0,0.0,92,0.00,CLR,,0.00,WeatherDisplay:10.37,2013-04-24 09:27:00,
2013-04-24 05:32:00,39.6,37.7,29.98,NE,40,0.0,0.0,93,0.00,CLR,,0.00,WeatherDisplay:10.37,2013-04-24 09:32:00,
2013-04-24 05:38:00,39.3,37.4,29.98,NE,40,0.0,0.0,93,0.00,CLR,,0.00,WeatherDisplay:10.37,2013-04-24 09:38:00,
2013-04-24 05:43:00,39.2,37.6,29.98,NE,40,0.0,0.0,94,0.00,CLR,,0.00,WeatherDisplay:10.37,2013-04-24 09:43:00,
2013-04-24 05:48:00,39.1,37.5,29.99,NE,40,0.0,0.0,94,0.00,CLR,,0.00,WeatherDisplay:10.37,2013-04-24 09:48:00,
2013-04-24 05:53:00,38.8,37.2,29.99,NE,40,0.0,0.0,94,0.00,CLR,,0.00,WeatherDisplay:10.37,2013-04-24 09:53:00,
2013-04-24 05:58:00,38.5,37.2,29.99,NE,40,0.0,0.0,95,0.00,CLR,,0.00,WeatherDisplay:10.37,2013-04-24 09:58:00,
2013-04-24 06:03:00,38.3,37.0,29.99,NE,40,0.0,0.0,95,0.00,CLR,,0.00,WeatherDisplay:10.37,2013-04-24 10:03:00,
2013-04-24 06:08:00,38.2,36.9,30.00,NE,40,0.0,0.0,95,0.00,CLR,,0.00,WeatherDisplay:10.37,2013-04-24 10:08:00,
2013-04-24 06:13:00,38.2,37.2,30.00,NE,40,0.0,0.0,96,0.00,CLR,,0.00,WeatherDisplay:10.37,2013-04-24 10:13:00,
2013-04-24 06:18:00,37.9,36.9,29.99,NE,40,0.0,0.0,96,0.00,CLR,,0.00,WeatherDisplay:10.37,2013-04-24 10:18:00,
2013-04-24 06:24:00,37.5,36.2,29.99,NE,40,0.0,0.0,95,0.00,CLR,,0.00,WeatherDisplay:10.37,2013-04-24 10:24:00,
2013-04-24 06:29:00,37.5,36.5,30.00,NE,40,0.0,0.0,96,0.00,CLR,,0.00,WeatherDisplay:10.37,2013-04-24 10:29:00,
2013-04-24 06:34:00,37.5,36.5,30.00,NE,40,0.0,0.0,96,0.00,CLR,,0.00,WeatherDisplay:10.37,2013-04-24 10:34:00,
2013-04-24 06:39:00,37.5,36.5,30.00,NE,40,0.0,0.0,96,0.00,CLR,,0.00,WeatherDisplay:10.37,2013-04-24 10:39:00,
2013-04-24 06:45:00,37.6,36.8,30.00,NE,40,0.0,1.1,97,0.00,CLR,,0.00,WeatherDisplay:10.37,2013-04-24 10:45:00,
2013-04-24 06:50:00,37.8,37.0,30.00,WNW,302,0.0,0.0,97,0.00,CLR,,0.00,WeatherDisplay:10.37,2013-04-24 10:50:00,
2013-04-24 06:55:00,38.2,37.4,30.00,WNW,302,0.0,0.0,97,0.00,CLR,,0.00,WeatherDisplay:10.37,2013-04-24 10:55:00,
2013-04-24 07:00:00,38.2,37.4,30.00,WNW,302,0.0,0.0,97,0.00,CLR,,0.00,WeatherDisplay:10.37,2013-04-24 11:00:00,
2013-04-24 07:06:00,38.5,37.7,30.00,WNW,302,0.1,2.3,97,0.00,CLR,,0.00,WeatherDisplay:10.37,2013-04-24 11:06:00,
2013-04-24 07:11:00,39.1,38.6,30.00,NW,315,0.4,3.5,98,0.00,CLR,,0.00,WeatherDisplay:10.37,2013-04-24 11:11:00,
2013-04-24 07:16:00,39.5,39.0,30.00,NW,315,0.9,3.5,98,0.00,CLR,,0.00,WeatherDisplay:10.37,2013-04-24 11:16:00,
2013-04-24 07:21:00,39.9,39.1,30.00,NNE,26,2.8,4.0,97,0.00,CLR,,0.00,WeatherDisplay:10.37,2013-04-24 11:21:00,
2013-04-24 07:26:00,40.2,39.2,30.00,NNE,23,1.3,3.5,96,0.00,CLR,,0.00,WeatherDisplay:10.37,2013-04-24 11:26:00,
2013-04-24 07:32:00,40.5,39.4,30.00,NE,42,2.0,3.5,96,0.00,CLR,,0.00,WeatherDisplay:10.37,2013-04-24 11:32:00,
2013-04-24 07:37:00,40.9,39.8,30.00,NNE,33,0.9,3.5,96,0.00,CLR,,0.00,WeatherDisplay:10.37,2013-04-24 11:37:00,
2013-04-24 07:42:00,41.2,39.9,30.00,NNE,33,2.4,3.5,95,0.00,CLR,,0.00,WeatherDisplay:10.37,2013-04-24 11:42:00,
2013-04-24 07:47:00,41.6,40.3,29.99,NNE,32,1.1,2.3,95,0.00,CLR,,0.00,WeatherDisplay:10.37,2013-04-24 11:47:00,
2013-04-24 07:52:00,41.9,40.0,29.99,North,355,2.5,3.5,93,0.00,CLR,,0.00,WeatherDisplay:10.37,2013-04-24 11:52:00,
2013-04-24 07:57:00,42.2,40.0,29.99,North,360,0.4,2.3,92,0.00,CLR,,0.00,WeatherDisplay:10.37,2013-04-24 11:57:00,
2013-04-24 08:02:00,42.2,39.8,29.99,North,9,0.3,2.3,91,0.00,CLR,,0.00,WeatherDisplay:10.37,2013-04-24 12:02:00,
2013-04-24 08:07:00,42.5,40.1,29.99,NE,42,1.9,3.5,91,0.00,CLR,,0.00,WeatherDisplay:10.37,2013-04-24 12:07:00,
2013-04-24 08:13:00,42.6,40.2,29.98,NE,42,0.1,2.3,91,0.00,CLR,,0.00,WeatherDisplay:10.37,2013-04-24 12:13:00,
2013-04-24 08:18:00,43.1,40.4,29.98,NE,42,0.0,0.0,90,0.00,CLR,,0.00,WeatherDisplay:10.37,2013-04-24 12:18:00,
2013-04-24 08:23:00,43.5,40.5,29.98,NW,319,0.3,2.3,89,0.00,CLR,,0.00,WeatherDisplay:10.37,2013-04-24 12:23:00,
2013-04-24 08:28:00,43.9,40.6,29.98,North,355,0.1,0.0,88,0.00,CLR,,0.00,WeatherDisplay:10.37,2013-04-24 12:28:00,
2013-04-24 08:33:00,44.3,40.7,29.97,North,355,0.3,1.1,87,0.00,CLR,,0.00,WeatherDisplay:10.37,2013-04-24 12:33:00,
2013-04-24 08:38:00,44.6,41.0,29.97,East,80,0.0,1.1,87,0.00,CLR,,0.00,WeatherDisplay:10.37,2013-04-24 12:38:00,
2013-04-24 08:44:00,44.9,41.0,29.97,East,80,0.0,0.0,86,0.00,CLR,,0.00,WeatherDisplay:10.37,2013-04-24 12:44:00,
2013-04-24 08:49:00,45.4,41.5,29.97,NW,324,0.3,1.1,86,0.00,CLR,,0.00,WeatherDisplay:10.37,2013-04-24 12:49:00,
2013-04-24 08:54:00,46.0,41.7,29.97,NNW,335,0.1,1.1,85,0.00,CLR,,0.00,WeatherDisplay:10.37,2013-04-24 12:54:00,
2013-04-24 08:59:00,46.4,41.8,29.97,NNW,335,0.4,2.0,84,0.00,CLR,,0.00,WeatherDisplay:10.37,2013-04-24 12:59:00,
2013-04-24 09:04:00,46.8,41.9,29.97,North,360,0.0,1.1,83,0.00,CLR,,0.00,WeatherDisplay:10.37,2013-04-24 13:04:00,
2013-04-24 09:10:00,47.4,41.5,29.97,WNW,290,0.0,0.0,80,0.00,CLR,,0.00,WeatherDisplay:10.37,2013-04-24 13:10:00,
2013-04-24 09:15:00,48.2,42.3,29.97,SSW,194,1.0,2.3,80,0.00,CLR,,0.00,WeatherDisplay:10.37,2013-04-24 13:15:00,
2013-04-24 09:20:00,48.9,42.3,29.96,SSW,194,0.0,0.0,78,0.00,CLR,,0.00,WeatherDisplay:10.37,2013-04-24 13:20:00,
2013-04-24 09:26:00,50.2,42.9,29.96,South,184,0.2,2.3,76,0.00,CLR,,0.00,WeatherDisplay:10.37,2013-04-24 13:26:00,
2013-04-24 09:31:00,50.7,42.7,29.95,South,184,0.1,1.1,74,0.00,CLR,,0.00,WeatherDisplay:10.37,2013-04-24 13:31:00,
2013-04-24 09:36:00,51.6,43.2,29.95,South,184,0.0,0.0,73,0.00,CLR,,0.00,WeatherDisplay:10.37,2013-04-24 13:36:00,
2013-04-24 09:41:00,52.5,43.0,29.95,SE,133,0.1,1.1,70,0.00,CLR,,0.00,WeatherDisplay:10.37,2013-04-24 13:41:00,
2013-04-24 09:46:00,53.3,43.4,29.95,SSE,160,1.3,3.5,69,0.00,CLR,,0.00,WeatherDisplay:10.37,2013-04-24 13:46:00,
2013-04-24 09:52:00,54.1,43.8,29.95,WSW,252,1.1,2.3,68,0.00,CLR,,0.00,WeatherDisplay:10.37,2013-04-24 13:52:00,
2013-04-24 09:57:00,55.0,44.6,29.95,NW,319,0.1,2.3,68,0.00,CLR,,0.00,WeatherDisplay:10.37,2013-04-24 13:57:00,
2013-04-24 10:02:00,55.7,44.5,29.94,WNW,290,1.2,3.5,66,0.00,CLR,,0.00,WeatherDisplay:10.37,2013-04-24 14:02:00,
2013-04-24 10:07:00,55.7,44.1,29.94,SSW,213,2.8,4.6,65,0.00,CLR,,0.00,WeatherDisplay:10.37,2013-04-24 14:07:00,
2013-04-24 10:13:00,55.6,44.0,29.94,SW,219,1.6,3.5,65,0.00,CLR,,0.00,WeatherDisplay:10.37,2013-04-24 14:13:00,
2013-04-24 10:18:00,56.0,44.4,29.94,SSW,205,3.4,4.6,65,0.00,CLR,,0.00,WeatherDisplay:10.37,2013-04-24 14:18:00,
2013-04-24 10:23:00,56.5,44.5,29.93,WSW,242,0.3,2.3,64,0.00,CLR,,0.00,WeatherDisplay:10.37,2013-04-24 14:23:00,
2013-04-24 10:28:00,56.6,44.6,29.93,SSW,209,1.0,3.5,64,0.00,CLR,,0.00,WeatherDisplay:10.37,2013-04-24 14:28:00,
2013-04-24 10:33:00,57.5,44.1,29.93,SW,228,3.0,4.6,61,0.00,CLR,,0.00,WeatherDisplay:10.37,2013-04-24 14:33:00,
2013-04-24 10:38:00,57.0,44.5,29.93,SW,220,3.9,5.8,63,0.00,CLR,,0.00,WeatherDisplay:10.37,2013-04-24 14:38:00,
2013-04-24 10:44:00,57.2,44.7,29.93,SW,219,3.5,5.8,63,0.00,CLR,,0.00,WeatherDisplay:10.37,2013-04-24 14:44:00,
2013-04-24 10:49:00,57.5,44.6,29.93,West,261,1.7,3.5,62,0.00,CLR,,0.00,WeatherDisplay:10.37,2013-04-24 14:49:00,
2013-04-24 10:54:00,57.8,44.9,29.93,WNW,300,1.6,3.5,62,0.00,CLR,,0.00,WeatherDisplay:10.37,2013-04-24 14:54:00,
2013-04-24 10:59:00,58.1,44.3,29.93,SW,214,3.1,6.9,60,0.00,CLR,,0.00,WeatherDisplay:10.37,2013-04-24 14:59:00,
2013-04-24 11:05:00,58.3,44.0,29.92,WSW,244,2.1,2.3,59,0.00,CLR,,0.00,WeatherDisplay:10.37,2013-04-24 15:05:00,
2013-04-24 11:10:00,58.7,44.8,29.92,WSW,248,0.7,3.5,60,0.00,CLR,,0.00,WeatherDisplay:10.37,2013-04-24 15:10:00,
2013-04-24 11:15:00,59.2,44.9,29.91,SSW,205,0.1,4.6,59,0.00,CLR,,0.00,WeatherDisplay:10.37,2013-04-24 15:15:00,
2013-04-24 11:20:00,59.6,43.4,29.91,NW,307,5.1,9.2,55,0.00,CLR,,0.00,WeatherDisplay:10.37,2013-04-24 15:20:00,
2013-04-24 11:25:00,59.8,43.6,29.90,West,280,2.2,5.8,55,0.00,CLR,,0.00,WeatherDisplay:10.37,2013-04-24 15:25:00,
2013-04-24 11:30:00,60.1,43.9,29.90,WNW,286,4.4,4.6,55,0.00,CLR,,0.00,WeatherDisplay:10.37,2013-04-24 15:30:00,
2013-04-24 11:36:00,61.2,44.9,29.91,West,265,4.1,9.2,55,0.00,CLR,,0.00,WeatherDisplay:10.37,2013-04-24 15:36:00,
2013-04-24 11:41:00,62.0,44.7,29.90,West,259,2.7,5.8,53,0.00,CLR,,0.00,WeatherDisplay:10.37,2013-04-24 15:41:00,
2013-04-24 11:46:00,61.8,44.0,29.90,WSW,249,3.1,5.8,52,0.00,CLR,,0.00,WeatherDisplay:10.37,2013-04-24 15:46:00,
2013-04-24 11:51:00,61.8,44.0,29.90,WNW,303,4.4,6.9,52,0.00,CLR,,0.00,WeatherDisplay:10.37,2013-04-24 15:51:00,
2013-04-24 11:56:00,62.4,43.5,29.89,WNW,298,6.7,11.5,50,0.00,CLR,,0.00,WeatherDisplay:10.37,2013-04-24 15:56:00,
2013-04-24 12:02:00,63.2,46.3,29.89,WNW,282,3.6,5.8,54,0.00,CLR,,0.00,WeatherDisplay:10.37,2013-04-24 16:02:00,
2013-04-24 12:07:00,63.5,45.0,29.88,West,281,2.7,3.5,51,0.00,CLR,,0.00,WeatherDisplay:10.37,2013-04-24 16:07:00,
2013-04-24 12:12:00,64.0,45.5,29.88,WNW,292,5.6,8.1,51,0.00,CLR,,0.00,WeatherDisplay:10.37,2013-04-24 16:12:00,
2013-04-24 12:17:00,64.2,45.2,29.87,WNW,285,8.8,12.7,50,0.00,CLR,,0.00,WeatherDisplay:10.37,2013-04-24 16:17:00,
2013-04-24 12:22:00,64.2,44.1,29.87,SSW,211,1.2,3.5,48,0.00,CLR,,0.00,WeatherDisplay:10.37,2013-04-24 16:22:00,
2013-04-24 12:28:00,64.8,45.2,29.87,West,280,0.1,2.3,49,0.00,CLR,,0.00,WeatherDisplay:10.37,2013-04-24 16:28:00,
2013-04-24 12:33:00,64.8,46.2,29.86,West,276,0.9,3.5,51,0.00,CLR,,0.00,WeatherDisplay:10.37,2013-04-24 16:33:00,
2013-04-24 12:38:00,66.0,46.3,29.85,SW,219,0.5,3.5,49,0.00,CLR,,0.00,WeatherDisplay:10.37,2013-04-24 16:38:00,
2013-04-24 12:43:00,66.0,44.6,29.85,SSE,159,2.9,4.6,46,0.00,CLR,,0.00,WeatherDisplay:10.37,2013-04-24 16:43:00,
2013-04-24 12:48:00,66.4,46.7,29.85,SSE,159,1.7,3.5,49,0.00,CLR,,0.00,WeatherDisplay:10.37,2013-04-24 16:48:00,
2013-04-24 12:53:00,67.6,46.1,29.83,West,263,0.2,1.1,46,0.00,CLR,,0.00,WeatherDisplay:10.37,2013-04-24 16:53:00,
2013-04-24 12:58:00,68.4,46.8,29.83,South,177,3.2,4.6,46,0.00,CLR,,0.00,WeatherDisplay:10.37,2013-04-24 16:58:00,
2013-04-24 13:04:00,68.4,45.6,29.83,WSW,237,0.0,2.3,44,0.00,CLR,,0.00,WeatherDisplay:10.37,2013-04-24 17:04:00,
2013-04-24 13:09:00,68.9,46.1,29.82,SE,143,2.2,3.5,44,0.00,CLR,,0.00,WeatherDisplay:10.37,2013-04-24 17:09:00,
2013-04-24 13:14:00,69.1,45.0,29.82,SW,223,5.1,5.8,42,0.00,CLR,,0.00,WeatherDisplay:10.37,2013-04-24 17:14:00,
2013-04-24 13:19:00,69.8,45.7,29.82,NW,304,0.2,2.3,42,0.00,CLR,,0.00,WeatherDisplay:10.37,2013-04-24 17:19:00,
2013-04-24 13:25:00,69.9,44.5,29.82,South,171,3.0,5.8,40,0.00,CLR,,0.00,WeatherDisplay:10.37,2013-04-24 17:25:00,
2013-04-24 13:30:00,70.4,45.6,29.81,SSW,193,2.2,3.5,41,0.00,CLR,,0.00,WeatherDisplay:10.37,2013-04-24 17:30:00,
2013-04-24 13:35:00,70.3,44.8,29.81,SE,144,4.7,6.9,40,0.00,CLR,,0.00,WeatherDisplay:10.37,2013-04-24 17:35:00,
2013-04-24 13:40:00,69.4,44.7,29.80,SSE,167,2.9,4.6,41,0.00,CLR,,0.00,WeatherDisplay:10.37,2013-04-24 17:40:00,
2013-04-24 13:45:00,69.6,44.8,29.80,SSE,151,5.9,10.4,41,0.00,CLR,,0.00,WeatherDisplay:10.37,2013-04-24 17:45:00,
2013-04-24 13:50:00,69.8,46.9,29.80,South,180,0.8,3.5,44,0.00,CLR,,0.00,WeatherDisplay:10.37,2013-04-24 17:50:00,
2013-04-24 13:55:00,70.1,46.6,29.80,SW,217,3.7,5.8,43,0.00,CLR,,0.00,WeatherDisplay:10.37,2013-04-24 17:55:00,
2013-04-24 14:00:00,70.4,47.4,29.80,SSW,205,2.3,3.5,44,0.00,CLR,,0.00,WeatherDisplay:10.37,2013-04-24 18:00:00,
2013-04-24 14:06:00,70.8,47.2,29.80,SW,232,4.0,9.2,43,0.00,CLR,,0.00,WeatherDisplay:10.37,2013-04-24 18:06:00,
2013-04-24 14:11:00,70.9,47.3,29.80,SSE,167,3.7,9.2,43,0.00,CLR,,0.00,WeatherDisplay:10.37,2013-04-24 18:11:00,
2013-04-24 14:16:00,70.6,46.4,29.80,South,175,3.9,10.4,42,0.00,CLR,,0.00,WeatherDisplay:10.37,2013-04-24 18:16:00,
2013-04-24 14:21:00,70.8,46.6,29.80,South,170,4.5,6.9,42,0.00,CLR,,0.00,WeatherDisplay:10.37,2013-04-24 18:21:00,
2013-04-24 14:26:00,70.9,47.3,29.80,SSW,202,2.3,5.0,43,0.00,CLR,,0.00,WeatherDisplay:10.37,2013-04-24 18:26:00,
2013-04-24 14:32:00,70.8,46.6,29.80,SSE,165,4.1,8.1,42,0.00,CLR,,0.00,WeatherDisplay:10.37,2013-04-24 18:32:00,
2013-04-24 14:37:00,70.9,46.7,29.80,SE,125,3.7,10.4,42,0.00,CLR,,0.00,WeatherDisplay:10.37,2013-04-24 18:37:00,
2013-04-24 14:42:00,71.3,49.4,29.79,SE,134,3.4,6.9,46,0.00,CLR,,0.00,WeatherDisplay:10.37,2013-04-24 18:42:00,
2013-04-24 14:47:00,72.0,47.6,29.79,ESE,111,4.7,6.9,42,0.00,CLR,,0.00,WeatherDisplay:10.37,2013-04-24 18:47:00,
2013-04-24 14:52:00,72.1,47.7,29.79,SW,217,4.2,6.9,42,0.00,CLR,,0.00,WeatherDisplay:10.37,2013-04-24 18:52:00,
2013-04-24 14:58:00,72.3,47.3,29.78,SSW,203,4.8,6.9,41,0.00,CLR,,0.00,WeatherDisplay:10.37,2013-04-24 18:58:00,
2013-04-24 15:03:00,71.8,48.1,29.77,SSW,205,4.0,6.9,43,0.00,CLR,,0.00,WeatherDisplay:10.37,2013-04-24 19:03:00,
2013-04-24 15:08:00,71.8,47.5,29.77,South,170,2.7,6.9,42,0.00,CLR,,0.00,WeatherDisplay:10.37,2013-04-24 19:08:00,
2013-04-24 15:13:00,72.1,47.1,29.77,SW,219,2.7,11.5,41,0.00,CLR,,0.00,WeatherDisplay:10.37,2013-04-24 19:13:00,
2013-04-24 15:18:00,72.1,47.7,29.77,SSE,153,4.6,8.1,42,0.00,CLR,,0.00,WeatherDisplay:10.37,2013-04-24 19:18:00,
2013-04-24 15:23:00,72.0,47.0,29.77,SSE,159,4.7,6.9,41,0.00,CLR,,0.00,WeatherDisplay:10.37,2013-04-24 19:23:00,
2013-04-24 15:28:00,72.1,47.7,29.76,SSE,165,4.8,6.9,42,0.00,CLR,,0.00,WeatherDisplay:10.37,2013-04-24 19:28:00,
2013-04-24 15:34:00,71.8,47.5,29.76,South,186,5.2,10.4,42,0.00,CLR,,0.00,WeatherDisplay:10.37,2013-04-24 19:34:00,
2013-04-24 15:39:00,72.3,49.2,29.75,South,189,3.9,6.9,44,0.00,CLR,,0.00,WeatherDisplay:10.37,2013-04-24 19:39:00,
2013-04-24 15:44:00,72.7,48.3,29.75,SW,231,1.8,5.8,42,0.00,CLR,,0.00,WeatherDisplay:10.37,2013-04-24 19:44:00,
2013-04-24 15:50:00,73.0,48.5,29.75,SW,214,5.0,10.4,42,0.00,CLR,,0.00,WeatherDisplay:10.37,2013-04-24 19:50:00,
2013-04-24 15:55:00,73.0,49.8,29.75,SW,216,3.7,4.6,44,0.00,CLR,,0.00,WeatherDisplay:10.37,2013-04-24 19:55:00,
2013-04-24 16:00:00,72.8,48.4,29.75,SSW,198,5.3,7.0,42,0.00,CLR,,0.00,WeatherDisplay:10.37,2013-04-24 20:00:00,
2013-04-24 16:05:00,72.5,48.1,29.75,SSE,156,5.8,10.4,42,0.00,CLR,,0.00,WeatherDisplay:10.37,2013-04-24 20:05:00,
2013-04-24 16:10:00,72.5,48.7,29.75,South,186,4.9,5.0,43,0.00,CLR,,0.00,WeatherDisplay:10.37,2013-04-24 20:10:00,
2013-04-24 16:15:00,72.5,48.7,29.75,South,184,3.9,16.1,43,0.00,CLR,,0.00,WeatherDisplay:10.37,2013-04-24 20:15:00,
2013-04-24 16:20:00,72.5,49.3,29.75,SSW,194,4.2,10.4,44,0.00,CLR,,0.00,WeatherDisplay:10.37,2013-04-24 20:20:00,
2013-04-24 16:25:00,72.5,47.5,29.75,WSW,245,4.9,7.0,41,0.00,CLR,,0.00,WeatherDisplay:10.37,2013-04-24 20:25:00,
2013-04-24 16:30:00,72.5,48.7,29.75,SSW,206,2.3,4.6,43,0.00,CLR,,0.00,WeatherDisplay:10.37,2013-04-24 20:30:00,
2013-04-24 16:36:00,72.5,48.7,29.75,SW,231,3.9,6.9,43,0.00,CLR,,0.00,WeatherDisplay:10.37,2013-04-24 20:36:00,
2013-04-24 16:41:00,72.7,48.9,29.75,SSE,165,2.0,4.6,43,0.00,CLR,,0.00,WeatherDisplay:10.37,2013-04-24 20:41:00,
2013-04-24 16:46:00,72.8,48.4,29.75,SW,229,2.0,3.5,42,0.00,CLR,,0.00,WeatherDisplay:10.37,2013-04-24 20:46:00,
2013-04-24 16:51:00,72.8,49.0,29.75,South,185,2.3,3.5,43,0.00,CLR,,0.00,WeatherDisplay:10.37,2013-04-24 20:51:00,
2013-04-24 16:56:00,72.7,48.3,29.74,WSW,256,5.5,10.4,42,0.00,CLR,,0.00,WeatherDisplay:10.37,2013-04-24 20:56:00,
2013-04-24 17:02:00,72.3,49.2,29.75,SW,216,4.2,8.0,44,0.00,CLR,,0.00,WeatherDisplay:10.37,2013-04-24 21:02:00,
2013-04-24 17:07:00,72.0,48.9,29.75,SW,225,6.0,9.2,44,0.00,CLR,,0.00,WeatherDisplay:10.37,2013-04-24 21:07:00,
2013-04-24 17:12:00,71.5,49.0,29.75,SSW,196,3.3,9.2,45,0.00,CLR,,0.00,WeatherDisplay:10.37,2013-04-24 21:12:00,
2013-04-24 17:17:00,70.9,49.1,29.75,SSE,163,5.7,9.2,46,0.00,CLR,,0.00,WeatherDisplay:10.37,2013-04-24 21:17:00,
2013-04-24 17:22:00,70.4,49.2,29.75,South,181,4.2,6.9,47,0.00,CLR,,0.00,WeatherDisplay:10.37,2013-04-24 21:22:00,
2013-04-24 17:28:00,70.3,49.1,29.75,SW,224,5.7,11.5,47,0.00,CLR,,0.00,WeatherDisplay:10.37,2013-04-24 21:28:00,
2013-04-24 17:33:00,69.9,48.7,29.75,SSW,206,4.5,9.2,47,0.00,CLR,,0.00,WeatherDisplay:10.37,2013-04-24 21:33:00,
2013-04-24 17:38:00,69.9,49.9,29.75,WSW,242,6.1,12.7,49,0.00,CLR,,0.00,WeatherDisplay:10.37,2013-04-24 21:38:00,
2013-04-24 17:43:00,69.4,48.9,29.75,SW,223,2.4,6.9,48,0.00,CLR,,0.00,WeatherDisplay:10.37,2013-04-24 21:43:00,
2013-04-24 17:48:00,68.9,49.5,29.75,South,176,4.8,6.9,50,0.00,CLR,,0.00,WeatherDisplay:10.37,2013-04-24 21:48:00,
2013-04-24 17:53:00,68.6,49.2,29.75,SW,216,4.7,11.5,50,0.00,CLR,,0.00,WeatherDisplay:10.37,2013-04-24 21:53:00,
2013-04-24 17:59:00,68.4,50.1,29.74,South,173,1.7,3.5,52,0.00,CLR,,0.00,WeatherDisplay:10.37,2013-04-24 21:59:00,
2013-04-24 18:04:00,68.4,49.6,29.74,South,172,2.9,3.5,51,0.00,CLR,,0.00,WeatherDisplay:10.37,2013-04-24 22:04:00,
2013-04-24 18:09:00,68.1,49.3,29.74,SSE,167,7.7,11.5,51,0.00,CLR,,0.00,WeatherDisplay:10.37,2013-04-24 22:09:00,
2013-04-24 18:14:00,67.6,49.3,29.74,South,180,5.0,9.2,52,0.00,CLR,,0.00,WeatherDisplay:10.37,2013-04-24 22:14:00,
2013-04-24 18:19:00,67.4,49.7,29.74,SE,143,4.2,4.2,53,0.00,CLR,,0.00,WeatherDisplay:10.37,2013-04-24 22:19:00,
2013-04-24 18:24:00,66.9,49.7,29.74,South,172,4.1,10.4,54,0.00,CLR,,0.00,WeatherDisplay:10.37,2013-04-24 22:24:00,
2013-04-24 18:29:00,66.6,49.9,29.74,SSE,166,1.5,3.5,55,0.00,CLR,,0.00,WeatherDisplay:10.37,2013-04-24 22:29:00,
2013-04-24 18:35:00,66.3,50.1,29.73,South,190,4.4,5.8,56,0.00,CLR,,0.00,WeatherDisplay:10.37,2013-04-24 22:35:00,
2013-04-24 18:40:00,66.0,49.8,29.73,ESE,118,4.0,6.0,56,0.00,CLR,,0.00,WeatherDisplay:10.37,2013-04-24 22:40:00,
2013-04-24 18:45:00,65.8,49.7,29.73,South,182,1.9,3.5,56,0.00,CLR,,0.00,WeatherDisplay:10.37,2013-04-24 22:45:00,
2013-04-24 18:50:00,65.6,49.5,29.73,South,178,1.0,6.9,56,0.00,CLR,,0.00,WeatherDisplay:10.37,2013-04-24 22:50:00,
2013-04-24 18:55:00,65.3,49.7,29.73,South,173,2.2,5.8,57,0.00,CLR,,0.00,WeatherDisplay:10.37,2013-04-24 22:55:00,
2013-04-24 19:00:00,65.2,50.0,29.74,South,172,3.4,11.5,58,0.00,CLR,,0.00,WeatherDisplay:10.37,2013-04-24 23:00:00,
2013-04-24 19:05:00,65.0,49.9,29.73,ESE,114,2.6,3.5,58,0.00,CLR,,0.00,WeatherDisplay:10.37,2013-04-24 23:05:00,
2013-04-24 19:11:00,64.5,49.8,29.74,SSE,159,4.0,7.0,59,0.00,CLR,,0.00,WeatherDisplay:10.37,2013-04-24 23:11:00,
2013-04-24 19:16:00,63.7,49.5,29.74,South,190,1.6,3.5,60,0.00,CLR,,0.00,WeatherDisplay:10.37,2013-04-24 23:16:00,
2013-04-24 19:21:00,63.2,50.0,29.74,SSW,209,3.3,10.4,62,0.00,CLR,,0.00,WeatherDisplay:10.37,2013-04-24 23:21:00,
2013-04-24 19:27:00,62.7,49.9,29.74,SSW,194,2.5,3.5,63,0.00,CLR,,0.00,WeatherDisplay:10.37,2013-04-24 23:27:00,
2013-04-24 19:32:00,62.3,50.0,29.74,SSW,194,1.1,2.3,64,0.00,CLR,,0.00,WeatherDisplay:10.37,2013-04-24 23:32:00,
2013-04-24 19:37:00,62.0,49.7,29.74,SSW,192,0.0,1.1,64,0.00,CLR,,0.00,WeatherDisplay:10.37,2013-04-24 23:37:00,
2013-04-24 19:42:00,61.5,49.6,29.74,SSE,160,0.7,3.5,65,0.00,CLR,,0.00,WeatherDisplay:10.37,2013-04-24 23:42:00,
2013-04-24 19:47:00,61.0,49.6,29.74,South,184,0.8,4.6,66,0.00,CLR,,0.00,WeatherDisplay:10.37,2013-04-24 23:47:00,
2013-04-24 19:52:00,60.5,49.5,29.75,SE,140,0.1,1.1,67,0.00,CLR,,0.00,WeatherDisplay:10.37,2013-04-24 23:52:00,
2013-04-24 19:58:00,60.1,49.9,29.76,SSE,150,2.3,3.5,69,0.00,CLR,,0.00,WeatherDisplay:10.37,2013-04-24 23:58:00,
2013-04-24 20:03:00,59.6,49.4,29.76,South,170,0.3,2.3,69,0.00,CLR,,0.00,WeatherDisplay:10.37,2013-04-25 00:03:00,
2013-04-24 20:08:00,59.5,49.7,29.76,SW,214,1.4,3.5,70,0.00,CLR,,0.00,WeatherDisplay:10.37,2013-04-25 00:08:00,
2013-04-24 20:13:00,59.3,49.9,29.77,SW,214,0.2,0.0,71,0.00,CLR,,0.00,WeatherDisplay:10.37,2013-04-25 00:13:00,
2013-04-24 20:18:00,59.0,50.0,29.77,SSW,209,1.7,3.5,72,0.00,CLR,,0.00,WeatherDisplay:10.37,2013-04-25 00:18:00,
2013-04-24 20:23:00,58.7,50.1,29.78,SW,229,2.3,6.9,73,0.00,CLR,,0.00,WeatherDisplay:10.37,2013-04-25 00:23:00,
2013-04-24 20:29:00,58.3,49.7,29.78,SW,222,1.7,3.5,73,0.00,CLR,,0.00,WeatherDisplay:10.37,2013-04-25 00:29:00,
2013-04-24 20:34:00,58.0,49.8,29.79,SE,132,4.1,6.9,74,0.00,CLR,,0.00,WeatherDisplay:10.37,2013-04-25 00:34:00,
2013-04-24 20:39:00,57.3,49.4,29.78,SSW,198,1.8,4.6,75,0.00,CLR,,0.00,WeatherDisplay:10.37,2013-04-25 00:39:00,
2013-04-24 20:44:00,56.9,49.8,29.78,SSE,163,3.7,5.8,77,0.00,CLR,,0.00,WeatherDisplay:10.37,2013-04-25 00:44:00,
2013-04-24 20:49:00,56.6,49.8,29.79,SSW,198,0.0,1.1,78,0.00,CLR,,0.00,WeatherDisplay:10.37,2013-04-25 00:49:00,
2013-04-24 20:54:00,56.3,49.5,29.79,South,189,2.2,4.0,78,0.00,CLR,,0.00,WeatherDisplay:10.37,2013-04-25 00:54:00,
2013-04-24 20:59:00,56.2,49.8,29.79,South,184,0.3,3.5,79,0.00,CLR,,0.00,WeatherDisplay:10.37,2013-04-25 00:59:00,
2013-04-24 21:05:00,55.9,49.8,29.78,ESE,119,0.1,1.0,80,0.00,CLR,,0.00,WeatherDisplay:10.37,2013-04-25 01:05:00,
2013-04-24 21:10:00,55.7,49.6,29.79,South,189,0.3,2.3,80,0.00,CLR,,0.00,WeatherDisplay:10.37,2013-04-25 01:10:00,
2013-04-24 21:15:00,55.6,49.9,29.78,South,189,0.3,1.1,81,0.00,CLR,,0.00,WeatherDisplay:10.37,2013-04-25 01:15:00,
2013-04-24 21:20:00,55.3,49.6,29.79,SW,216,0.4,2.3,81,0.00,CLR,,0.00,WeatherDisplay:10.37,2013-04-25 01:20:00,
2013-04-24 21:25:00,55.1,49.4,29.78,SW,216,0.0,1.1,81,0.00,CLR,,0.00,WeatherDisplay:10.37,2013-04-25 01:25:00,
2013-04-24 21:30:00,54.8,49.4,29.79,South,175,3.4,4.0,82,0.00,CLR,,0.00,WeatherDisplay:10.37,2013-04-25 01:30:00,
2013-04-24 21:36:00,54.7,49.6,29.79,WSW,237,0.0,1.1,83,0.00,CLR,,0.00,WeatherDisplay:10.37,2013-04-25 01:36:00,
2013-04-24 21:41:00,54.4,49.7,29.79,SSW,202,0.7,2.3,84,0.00,CLR,,0.00,WeatherDisplay:10.37,2013-04-25 01:41:00,
2013-04-24 21:46:00,54.2,49.5,29.78,SSW,202,0.6,2.3,84,0.00,CLR,,0.00,WeatherDisplay:10.37,2013-04-25 01:46:00,
2013-04-24 21:51:00,54.2,49.8,29.79,West,265,0.0,1.1,85,0.00,CLR,,0.00,WeatherDisplay:10.37,2013-04-25 01:51:00,
2013-04-24 21:56:00,54.1,49.7,29.79,SW,225,0.1,1.1,85,0.00,CLR,,0.00,WeatherDisplay:10.37,2013-04-25 01:56:00,
2013-04-24 22:01:00,54.1,49.7,29.79,SW,223,1.8,5.8,85,0.00,CLR,,0.00,WeatherDisplay:10.37,2013-04-25 02:01:00,
2013-04-24 22:07:00,53.9,49.8,29.79,SSW,207,1.1,4.6,86,0.00,CLR,,0.00,WeatherDisplay:10.37,2013-04-25 02:07:00,
2013-04-24 22:12:00,53.8,49.7,29.79,SW,231,1.1,3.5,86,0.00,CLR,,0.00,WeatherDisplay:10.37,2013-04-25 02:12:00,
2013-04-24 22:17:00,53.6,49.5,29.79,West,261,0.2,1.1,86,0.00,CLR,,0.00,WeatherDisplay:10.37,2013-04-25 02:17:00,
2013-04-24 22:22:00,53.5,49.7,29.79,South,169,4.3,5.8,87,0.00,CLR,,0.00,WeatherDisplay:10.37,2013-04-25 02:22:00,
2013-04-24 22:28:00,53.3,49.5,29.79,SW,222,2.2,3.5,87,0.00,CLR,,0.00,WeatherDisplay:10.37,2013-04-25 02:28:00,
2013-04-24 22:33:00,53.2,49.4,29.79,SW,224,0.1,1.1,87,0.00,CLR,,0.00,WeatherDisplay:10.37,2013-04-25 02:33:00,
2013-04-24 22:38:00,53.1,49.6,29.79,SW,236,1.6,3.5,88,0.00,CLR,,0.00,WeatherDisplay:10.37,2013-04-25 02:38:00,
2013-04-24 22:43:00,53.1,49.6,29.79,WSW,258,0.3,1.1,88,0.00,CLR,,0.00,WeatherDisplay:10.37,2013-04-25 02:43:00,
2013-04-24 22:49:00,53.1,49.6,29.79,WSW,246,0.4,1.1,88,0.00,CLR,,0.00,WeatherDisplay:10.37,2013-04-25 02:49:00,
2013-04-24 22:54:00,53.1,49.6,29.79,SSW,205,1.8,4.6,88,0.00,CLR,,0.00,WeatherDisplay:10.37,2013-04-25 02:54:00,
2013-04-24 22:59:00,52.9,49.4,29.79,WSW,240,1.2,3.5,88,0.00,CLR,,0.00,WeatherDisplay:10.37,2013-04-25 02:59:00,
2013-04-24 23:04:00,52.9,49.7,29.78,West,263,0.6,1.1,89,0.00,CLR,,0.00,WeatherDisplay:10.37,2013-04-25 03:04:00,
2013-04-24 23:09:00,52.9,49.7,29.77,WSW,241,0.1,1.1,89,0.00,CLR,,0.00,WeatherDisplay:10.37,2013-04-25 03:09:00,
2013-04-24 23:14:00,52.9,49.7,29.77,SSW,205,0.1,1.1,89,0.00,CLR,,0.00,WeatherDisplay:10.37,2013-04-25 03:14:00,
2013-04-24 23:19:00,52.9,49.7,29.77,SW,215,1.0,0.0,89,0.00,CLR,,0.00,WeatherDisplay:10.37,2013-04-25 03:19:00,
2013-04-24 23:25:00,52.9,49.7,29.77,South,171,0.1,1.1,89,0.00,CLR,,0.00,WeatherDisplay:10.37,2013-04-25 03:25:00,
2013-04-24 23:30:00,52.8,49.6,29.77,SSW,193,1.7,3.5,89,0.00,CLR,,0.00,WeatherDisplay:10.37,2013-04-25 03:30:00,
2013-04-24 23:35:00,52.8,49.6,29.77,SSW,193,0.0,2.3,89,0.00,CLR,,0.00,WeatherDisplay:10.37,2013-04-25 03:35:00,
2013-04-24 23:40:00,52.8,49.9,29.77,SSW,192,1.3,3.5,90,0.00,CLR,,0.00,WeatherDisplay:10.37,2013-04-25 03:40:00,
2013-04-24 23:45:00,52.8,49.9,29.76,NNE,29,0.1,2.3,90,0.00,CLR,,0.00,WeatherDisplay:10.37,2013-04-25 03:45:00,
2013-04-24 23:50:00,52.6,49.8,29.77,SW,227,0.4,1.1,90,0.00,CLR,,0.00,WeatherDisplay:10.37,2013-04-25 03:50:00,
2013-04-24 23:56:00,52.6,49.8,29.77,SW,230,2.5,4.0,90,0.00,CLR,,0.00,WeatherDisplay:10.37,2013-04-25 03:56:00,